sensor_id;sensor_type;location;lat;lon;timestamp;pressure;altitude;pressure_sealevel;temperature;humidity
21879;BME280;27908;42.708;23.278;2022-07-30T00:01:47;63166.91;;;24.02;58.37
21879;BME280;27908;42.708;23.278;2022-07-30T00:04:12;63183.47;;;24.06;57.99
21879;BME280;27908;42.708;23.278;2022-07-30T00:06:38;63159.38;;;24.10;58.26
21879;BME280;27908;42.708;23.278;2022-07-30T00:09:04;63147.59;;;24.04;57.90
21879;BME280;27908;42.708;23.278;2022-07-30T00:11:29;63098.25;;;23.99;58.66
21879;BME280;27908;42.708;23.278;2022-07-30T00:13:55;63175.81;;;24.01;58.65
21879;BME280;27908;42.708;23.278;2022-07-30T00:16:20;63114.28;;;23.87;58.60
21879;BME280;27908;42.708;23.278;2022-07-30T00:18:46;63169.25;;;23.94;58.90
21879;BME280;27908;42.708;23.278;2022-07-30T00:21:11;63183.00;;;23.88;58.91
21879;BME280;27908;42.708;23.278;2022-07-30T00:23:36;63137.00;;;23.93;58.87
21879;BME280;27908;42.708;23.278;2022-07-30T00:26:02;63146.97;;;23.91;58.75
21879;BME280;27908;42.708;23.278;2022-07-30T00:28:27;63115.22;;;23.90;58.79
21879;BME280;27908;42.708;23.278;2022-07-30T00:30:53;63154.44;;;23.85;59.51
21879;BME280;27908;42.708;23.278;2022-07-30T00:33:18;63153.78;;;23.90;59.26
21879;BME280;27908;42.708;23.278;2022-07-30T00:35:44;63140.41;;;23.84;59.22
21879;BME280;27908;42.708;23.278;2022-07-30T00:38:10;63206.00;;;23.85;59.20
21879;BME280;27908;42.708;23.278;2022-07-30T00:40:35;63117.88;;;23.55;59.47
21879;BME280;27908;42.708;23.278;2022-07-30T00:43:00;63128.03;;;23.80;59.40
21879;BME280;27908;42.708;23.278;2022-07-30T00:45:26;63130.72;;;23.77;59.71
21879;BME280;27908;42.708;23.278;2022-07-30T00:47:51;63132.63;;;23.66;59.75
21879;BME280;27908;42.708;23.278;2022-07-30T00:50:17;63138.81;;;23.34;59.76
21879;BME280;27908;42.708;23.278;2022-07-30T00:52:43;63121.03;;;23.70;60.54
21879;BME280;27908;42.708;23.278;2022-07-30T00:55:10;63191.84;;;23.71;60.59
21879;BME280;27908;42.708;23.278;2022-07-30T00:57:36;63154.19;;;23.59;60.95
21879;BME280;27908;42.708;23.278;2022-07-30T01:00:04;63116.09;;;23.63;60.88
21879;BME280;27908;42.708;23.278;2022-07-30T01:02:31;63141.16;;;23.42;61.11
21879;BME280;27908;42.708;23.278;2022-07-30T01:04:56;63153.25;;;23.56;61.89
21879;BME280;27908;42.708;23.278;2022-07-30T01:07:22;63103.84;;;23.54;61.79
21879;BME280;27908;42.708;23.278;2022-07-30T01:09:47;63092.50;;;23.50;61.91
21879;BME280;27908;42.708;23.278;2022-07-30T01:12:19;63174.13;;;23.54;61.74
21879;BME280;27908;42.708;23.278;2022-07-30T01:14:47;63091.16;;;23.44;61.72
21879;BME280;27908;42.708;23.278;2022-07-30T01:17:13;63120.22;;;23.47;62.23
21879;BME280;27908;42.708;23.278;2022-07-30T01:19:39;63132.84;;;23.41;62.28
21879;BME280;27908;42.708;23.278;2022-07-30T01:25:05;63116.75;;;23.41;62.82
21879;BME280;27908;42.708;23.278;2022-07-30T01:27:35;63082.66;;;23.15;66.08
21879;BME280;27908;42.708;23.278;2022-07-30T01:30:04;63097.50;;;22.71;68.05
21879;BME280;27908;42.708;23.278;2022-07-30T01:32:32;63078.63;;;22.40;70.19
21879;BME280;27908;42.708;23.278;2022-07-30T01:34:59;62991.25;;;22.26;71.14
21879;BME280;27908;42.708;23.278;2022-07-30T01:37:27;62932.41;;;22.14;71.93
21879;BME280;27908;42.708;23.278;2022-07-30T01:39:54;62954.09;;;22.00;73.16
21879;BME280;27908;42.708;23.278;2022-07-30T01:42:22;62910.88;;;21.52;75.53
21879;BME280;27908;42.708;23.278;2022-07-30T01:44:49;62883.22;;;21.41;76.74
21879;BME280;27908;42.708;23.278;2022-07-30T01:47:16;62777.16;;;20.98;78.02
21879;BME280;27908;42.708;23.278;2022-07-30T01:49:45;62845.59;;;21.14;78.29
21879;BME280;27908;42.708;23.278;2022-07-30T01:52:12;62758.31;;;20.69;80.99
21879;BME280;27908;42.708;23.278;2022-07-30T01:54:39;62704.13;;;20.44;81.10
21879;BME280;27908;42.708;23.278;2022-07-30T01:57:06;62649.28;;;20.43;81.76
21879;BME280;27908;42.708;23.278;2022-07-30T01:59:34;62636.75;;;20.46;81.97
21879;BME280;27908;42.708;23.278;2022-07-30T02:02:00;62644.94;;;20.16;82.82
21879;BME280;27908;42.708;23.278;2022-07-30T02:04:26;62625.69;;;20.35;83.24
21879;BME280;27908;42.708;23.278;2022-07-30T02:07:23;62583.28;;;20.34;82.60
21879;BME280;27908;42.708;23.278;2022-07-30T02:10:05;62547.66;;;20.15;83.60
21879;BME280;27908;42.708;23.278;2022-07-30T02:12:33;62512.19;;;20.08;83.17
21879;BME280;27908;42.708;23.278;2022-07-30T02:17:42;62443.22;;;19.96;84.61
21879;BME280;27908;42.708;23.278;2022-07-30T02:20:13;62458.50;;;19.88;84.60
21879;BME280;27908;42.708;23.278;2022-07-30T02:22:44;62446.00;;;20.06;84.05
21879;BME280;27908;42.708;23.278;2022-07-30T02:25:16;62467.84;;;20.02;84.85
21879;BME280;27908;42.708;23.278;2022-07-30T02:27:43;62448.41;;;19.96;85.53
21879;BME280;27908;42.708;23.278;2022-07-30T02:30:12;62387.56;;;19.90;85.81
21879;BME280;27908;42.708;23.278;2022-07-30T02:32:40;62332.59;;;19.63;88.18
21879;BME280;27908;42.708;23.278;2022-07-30T02:35:26;62264.09;;;19.70;87.26
21879;BME280;27908;42.708;23.278;2022-07-30T02:37:53;62263.28;;;19.64;88.00
21879;BME280;27908;42.708;23.278;2022-07-30T02:40:20;62246.94;;;19.58;88.11
21879;BME280;27908;42.708;23.278;2022-07-30T02:42:50;62194.47;;;19.65;88.00
21879;BME280;27908;42.708;23.278;2022-07-30T02:45:17;62134.00;;;19.64;88.16
21879;BME280;27908;42.708;23.278;2022-07-30T02:47:53;62096.41;;;19.60;88.45
21879;BME280;27908;42.708;23.278;2022-07-30T02:50:21;62092.53;;;19.54;88.63
21879;BME280;27908;42.708;23.278;2022-07-30T02:52:49;62060.91;;;19.56;89.01
21879;BME280;27908;42.708;23.278;2022-07-30T02:55:17;61973.41;;;19.46;89.04
21879;BME280;27908;42.708;23.278;2022-07-30T02:57:43;61923.31;;;19.45;89.35
21879;BME280;27908;42.708;23.278;2022-07-30T03:00:10;61957.00;;;19.42;89.73
21879;BME280;27908;42.708;23.278;2022-07-30T03:02:36;61923.97;;;19.02;91.82
21879;BME280;27908;42.708;23.278;2022-07-30T03:05:05;61778.47;;;18.98;92.53
21879;BME280;27908;42.708;23.278;2022-07-30T03:07:33;61636.72;;;19.04;92.53
21879;BME280;27908;42.708;23.278;2022-07-30T03:10:00;61576.22;;;19.05;93.14
21879;BME280;27908;42.708;23.278;2022-07-30T03:12:29;61415.59;;;18.94;93.38
21879;BME280;27908;42.708;23.278;2022-07-30T03:14:56;61275.44;;;18.88;93.65
21879;BME280;27908;42.708;23.278;2022-07-30T03:17:24;61144.75;;;18.89;93.42
21879;BME280;27908;42.708;23.278;2022-07-30T03:19:52;60963.78;;;18.94;93.41
21879;BME280;27908;42.708;23.278;2022-07-30T03:22:20;60857.38;;;18.86;93.58
21879;BME280;27908;42.708;23.278;2022-07-30T03:24:47;60766.63;;;18.93;93.48
21879;BME280;27908;42.708;23.278;2022-07-30T03:27:14;60700.97;;;18.95;93.58
21879;BME280;27908;42.708;23.278;2022-07-30T03:29:40;60609.22;;;18.75;94.26
21879;BME280;27908;42.708;23.278;2022-07-30T03:32:07;60516.22;;;18.93;93.90
21879;BME280;27908;42.708;23.278;2022-07-30T03:34:35;60420.88;;;18.83;93.44
21879;BME280;27908;42.708;23.278;2022-07-30T03:37:04;60350.56;;;19.01;93.86
21879;BME280;27908;42.708;23.278;2022-07-30T03:39:34;60351.06;;;19.01;93.38
21879;BME280;27908;42.708;23.278;2022-07-30T03:42:01;60258.13;;;19.01;93.49
21879;BME280;27908;42.708;23.278;2022-07-30T03:44:28;60281.69;;;19.04;93.89
21879;BME280;27908;42.708;23.278;2022-07-30T03:46:54;60229.88;;;18.91;93.93
21879;BME280;27908;42.708;23.278;2022-07-30T03:49:22;60216.97;;;18.91;93.81
21879;BME280;27908;42.708;23.278;2022-07-30T03:51:49;60135.06;;;18.81;94.24
21879;BME280;27908;42.708;23.278;2022-07-30T03:54:15;60036.50;;;18.88;94.24
21879;BME280;27908;42.708;23.278;2022-07-30T03:56:41;59991.63;;;18.95;94.71
21879;BME280;27908;42.708;23.278;2022-07-30T03:59:07;59983.88;;;18.58;94.01
21879;BME280;27908;42.708;23.278;2022-07-30T04:01:33;59931.16;;;18.89;94.31
21879;BME280;27908;42.708;23.278;2022-07-30T04:04:08;59826.56;;;19.01;95.01
21879;BME280;27908;42.708;23.278;2022-07-30T04:06:35;59762.69;;;18.78;95.36
21879;BME280;27908;42.708;23.278;2022-07-30T04:09:08;59745.22;;;19.05;94.46
21879;BME280;27908;42.708;23.278;2022-07-30T04:11:34;59685.19;;;19.07;94.42
21879;BME280;27908;42.708;23.278;2022-07-30T04:13:59;59613.97;;;19.13;95.04
21879;BME280;27908;42.708;23.278;2022-07-30T04:19:21;59530.13;;;19.23;94.96
21879;BME280;27908;42.708;23.278;2022-07-30T04:21:48;59552.41;;;19.22;93.97
21879;BME280;27908;42.708;23.278;2022-07-30T04:24:17;59552.97;;;19.27;93.54
21879;BME280;27908;42.708;23.278;2022-07-30T04:26:43;59580.69;;;19.29;93.36
21879;BME280;27908;42.708;23.278;2022-07-30T04:29:10;59553.13;;;19.38;93.49
21879;BME280;27908;42.708;23.278;2022-07-30T04:31:36;59464.28;;;19.45;93.98
21879;BME280;27908;42.708;23.278;2022-07-30T04:34:02;59496.66;;;19.60;93.13
21879;BME280;27908;42.708;23.278;2022-07-30T04:36:29;59539.25;;;19.64;92.47
21879;BME280;27908;42.708;23.278;2022-07-30T04:38:56;59454.53;;;19.70;92.79
21879;BME280;27908;42.708;23.278;2022-07-30T04:41:21;59486.38;;;19.79;92.25
21879;BME280;27908;42.708;23.278;2022-07-30T04:43:46;59519.31;;;19.81;91.34
21879;BME280;27908;42.708;23.278;2022-07-30T04:46:12;59555.31;;;19.83;91.82
21879;BME280;27908;42.708;23.278;2022-07-30T04:48:38;59521.09;;;19.91;91.58
21879;BME280;27908;42.708;23.278;2022-07-30T04:51:08;59528.03;;;19.82;91.70
21879;BME280;27908;42.708;23.278;2022-07-30T04:53:34;59510.31;;;20.09;91.71
21879;BME280;27908;42.708;23.278;2022-07-30T04:55:59;59539.31;;;20.15;89.63
21879;BME280;27908;42.708;23.278;2022-07-30T04:58:27;59657.47;;;20.25;88.35
21879;BME280;27908;42.708;23.278;2022-07-30T05:00:54;59613.47;;;20.38;88.20
21879;BME280;27908;42.708;23.278;2022-07-30T05:03:20;59499.94;;;20.41;88.74
21879;BME280;27908;42.708;23.278;2022-07-30T05:05:47;59578.63;;;20.66;87.49
21879;BME280;27908;42.708;23.278;2022-07-30T05:08:14;59504.81;;;20.89;88.07
21879;BME280;27908;42.708;23.278;2022-07-30T05:10:39;59637.09;;;21.05;85.32
21879;BME280;27908;42.708;23.278;2022-07-30T05:13:10;59764.81;;;21.14;83.05
21879;BME280;27908;42.708;23.278;2022-07-30T05:15:36;59777.38;;;21.19;83.19
21879;BME280;27908;42.708;23.278;2022-07-30T05:18:02;59875.63;;;21.21;82.17
21879;BME280;27908;42.708;23.278;2022-07-30T05:20:27;59877.44;;;21.31;82.68
21879;BME280;27908;42.708;23.278;2022-07-30T05:22:53;59866.13;;;21.43;81.65
21879;BME280;27908;42.708;23.278;2022-07-30T05:25:18;59922.47;;;21.59;80.92
21879;BME280;27908;42.708;23.278;2022-07-30T05:27:44;59929.94;;;21.69;80.74
21879;BME280;27908;42.708;23.278;2022-07-30T05:30:10;60019.03;;;21.43;79.92
21879;BME280;27908;42.708;23.278;2022-07-30T05:32:35;59984.19;;;21.85;80.42
21879;BME280;27908;42.708;23.278;2022-07-30T05:35:01;59983.44;;;21.95;80.03
21879;BME280;27908;42.708;23.278;2022-07-30T05:37:26;59986.00;;;22.08;80.20
21879;BME280;27908;42.708;23.278;2022-07-30T05:39:51;59975.47;;;22.24;79.25
21879;BME280;27908;42.708;23.278;2022-07-30T05:42:17;60039.00;;;22.28;78.45
21879;BME280;27908;42.708;23.278;2022-07-30T05:44:42;59963.44;;;22.38;79.44
21879;BME280;27908;42.708;23.278;2022-07-30T05:47:08;60011.00;;;22.47;77.75
21879;BME280;27908;42.708;23.278;2022-07-30T05:49:33;60103.69;;;22.57;76.80
21879;BME280;27908;42.708;23.278;2022-07-30T05:51:58;60004.53;;;22.70;77.96
21879;BME280;27908;42.708;23.278;2022-07-30T05:54:24;60009.34;;;22.88;76.57
21879;BME280;27908;42.708;23.278;2022-07-30T05:56:49;60092.47;;;22.88;75.97
21879;BME280;27908;42.708;23.278;2022-07-30T05:59:15;60137.69;;;23.08;75.19
21879;BME280;27908;42.708;23.278;2022-07-30T06:01:40;60249.16;;;23.18;72.94
21879;BME280;27908;42.708;23.278;2022-07-30T06:04:05;60199.97;;;23.29;74.06
21879;BME280;27908;42.708;23.278;2022-07-30T06:06:31;60300.75;;;23.23;73.13
21879;BME280;27908;42.708;23.278;2022-07-30T06:08:56;60344.59;;;23.41;72.11
21879;BME280;27908;42.708;23.278;2022-07-30T06:11:22;60350.19;;;23.50;71.52
21879;BME280;27908;42.708;23.278;2022-07-30T06:13:48;60340.41;;;23.56;71.38
21879;BME280;27908;42.708;23.278;2022-07-30T06:16:13;60318.66;;;23.68;71.71
21879;BME280;27908;42.708;23.278;2022-07-30T06:18:39;60334.19;;;23.76;71.34
21879;BME280;27908;42.708;23.278;2022-07-30T06:21:04;60343.94;;;23.91;71.00
21879;BME280;27908;42.708;23.278;2022-07-30T06:23:30;60386.94;;;24.00;70.21
21879;BME280;27908;42.708;23.278;2022-07-30T06:25:55;60413.34;;;24.09;69.69
21879;BME280;27908;42.708;23.278;2022-07-30T06:28:20;60372.09;;;24.17;69.79
21879;BME280;27908;42.708;23.278;2022-07-30T06:30:46;60367.25;;;24.33;69.51
21879;BME280;27908;42.708;23.278;2022-07-30T06:33:14;60486.72;;;24.30;68.46
21879;BME280;27908;42.708;23.278;2022-07-30T06:35:39;60392.59;;;24.49;69.68
21879;BME280;27908;42.708;23.278;2022-07-30T06:38:05;60372.72;;;24.63;68.78
21879;BME280;27908;42.708;23.278;2022-07-30T06:40:30;60441.81;;;24.59;67.53
21879;BME280;27908;42.708;23.278;2022-07-30T06:42:56;60375.81;;;24.77;69.56
21879;BME280;27908;42.708;23.278;2022-07-30T06:45:21;60306.31;;;24.99;67.64
21879;BME280;27908;42.708;23.278;2022-07-30T06:47:46;60376.66;;;25.12;66.73
21879;BME280;27908;42.708;23.278;2022-07-30T06:50:12;60438.78;;;25.25;65.86
21879;BME280;27908;42.708;23.278;2022-07-30T06:52:37;60484.47;;;25.21;64.88
21879;BME280;27908;42.708;23.278;2022-07-30T06:55:03;60500.47;;;25.43;64.54
21879;BME280;27908;42.708;23.278;2022-07-30T06:57:29;60499.22;;;25.52;63.91
21879;BME280;27908;42.708;23.278;2022-07-30T06:59:54;60522.34;;;25.71;63.79
21879;BME280;27908;42.708;23.278;2022-07-30T07:02:19;60495.00;;;25.80;63.49
21879;BME280;27908;42.708;23.278;2022-07-30T07:04:45;60461.03;;;25.93;64.16
21879;BME280;27908;42.708;23.278;2022-07-30T07:07:10;60523.88;;;26.04;61.27
21879;BME280;27908;42.708;23.278;2022-07-30T07:09:36;60566.66;;;26.18;62.03
21879;BME280;27908;42.708;23.278;2022-07-30T07:12:01;60583.06;;;26.22;60.89
21879;BME280;27908;42.708;23.278;2022-07-30T07:14:27;60628.47;;;26.23;60.22
21879;BME280;27908;42.708;23.278;2022-07-30T07:16:52;60718.16;;;26.32;59.29
21879;BME280;27908;42.708;23.278;2022-07-30T07:19:18;60693.09;;;26.38;60.12
21879;BME280;27908;42.708;23.278;2022-07-30T07:21:43;60675.22;;;26.47;60.86
21879;BME280;27908;42.708;23.278;2022-07-30T07:24:09;60733.59;;;26.55;60.59
21879;BME280;27908;42.708;23.278;2022-07-30T07:26:34;60731.38;;;26.64;59.62
21879;BME280;27908;42.708;23.278;2022-07-30T07:29:00;60675.69;;;26.60;61.39
21879;BME280;27908;42.708;23.278;2022-07-30T07:31:25;60668.63;;;26.90;60.59
21879;BME280;27908;42.708;23.278;2022-07-30T07:33:51;60646.66;;;26.84;59.65
21879;BME280;27908;42.708;23.278;2022-07-30T07:36:20;60735.38;;;27.00;59.68
21879;BME280;27908;42.708;23.278;2022-07-30T07:38:45;60741.38;;;27.03;58.20
21879;BME280;27908;42.708;23.278;2022-07-30T07:41:11;60754.84;;;27.12;59.16
21879;BME280;27908;42.708;23.278;2022-07-30T07:43:36;60749.81;;;27.36;59.25
21879;BME280;27908;42.708;23.278;2022-07-30T07:46:02;60911.81;;;27.46;56.40
21879;BME280;27908;42.708;23.278;2022-07-30T07:48:28;60861.50;;;27.54;58.52
21879;BME280;27908;42.708;23.278;2022-07-30T07:50:54;60873.75;;;27.71;57.94
21879;BME280;27908;42.708;23.278;2022-07-30T07:53:19;60868.13;;;27.76;57.09
21879;BME280;27908;42.708;23.278;2022-07-30T07:55:44;60916.03;;;27.80;57.01
21879;BME280;27908;42.708;23.278;2022-07-30T07:58:10;60931.47;;;27.90;56.28
21879;BME280;27908;42.708;23.278;2022-07-30T08:00:40;60955.22;;;28.09;55.82
21879;BME280;27908;42.708;23.278;2022-07-30T08:03:06;61041.56;;;28.03;54.94
21879;BME280;27908;42.708;23.278;2022-07-30T08:05:31;61033.25;;;28.16;55.41
21879;BME280;27908;42.708;23.278;2022-07-30T08:07:57;61039.69;;;28.28;55.56
21879;BME280;27908;42.708;23.278;2022-07-30T08:10:23;61035.81;;;28.37;56.19
21879;BME280;27908;42.708;23.278;2022-07-30T08:12:48;61085.25;;;28.42;55.22
21879;BME280;27908;42.708;23.278;2022-07-30T08:15:14;61105.59;;;28.58;53.83
21879;BME280;27908;42.708;23.278;2022-07-30T08:17:43;61120.34;;;28.57;54.46
21879;BME280;27908;42.708;23.278;2022-07-30T08:20:10;61131.84;;;28.71;54.66
21879;BME280;27908;42.708;23.278;2022-07-30T08:22:36;61086.69;;;28.78;54.90
21879;BME280;27908;42.708;23.278;2022-07-30T08:25:02;61154.94;;;28.92;54.92
21879;BME280;27908;42.708;23.278;2022-07-30T08:27:28;61165.94;;;29.05;53.85
21879;BME280;27908;42.708;23.278;2022-07-30T08:29:54;61172.81;;;29.26;52.83
21879;BME280;27908;42.708;23.278;2022-07-30T08:32:19;61125.19;;;29.44;53.84
21879;BME280;27908;42.708;23.278;2022-07-30T08:34:45;61366.50;;;29.41;50.61
21879;BME280;27908;42.708;23.278;2022-07-30T08:37:10;61466.78;;;29.12;50.42
21879;BME280;27908;42.708;23.278;2022-07-30T08:39:36;61411.25;;;29.46;51.42
21879;BME280;27908;42.708;23.278;2022-07-30T08:42:02;61465.50;;;29.59;50.12
21879;BME280;27908;42.708;23.278;2022-07-30T08:44:27;61475.63;;;29.72;49.53
21879;BME280;27908;42.708;23.278;2022-07-30T08:46:55;61442.75;;;29.75;51.62
21879;BME280;27908;42.708;23.278;2022-07-30T08:49:22;61488.31;;;29.92;49.67
21879;BME280;27908;42.708;23.278;2022-07-30T08:51:48;61528.31;;;30.06;49.38
21879;BME280;27908;42.708;23.278;2022-07-30T08:54:14;61556.81;;;29.90;48.17
21879;BME280;27908;42.708;23.278;2022-07-30T08:56:40;61565.97;;;30.02;49.34
21879;BME280;27908;42.708;23.278;2022-07-30T08:59:06;61648.00;;;30.23;47.50
21879;BME280;27908;42.708;23.278;2022-07-30T09:01:32;61700.25;;;30.36;46.76
21879;BME280;27908;42.708;23.278;2022-07-30T09:03:57;61739.69;;;30.36;46.19
21879;BME280;27908;42.708;23.278;2022-07-30T09:06:23;61616.28;;;30.26;47.66
21879;BME280;27908;42.708;23.278;2022-07-30T09:08:48;61771.78;;;30.21;45.97
21879;BME280;27908;42.708;23.278;2022-07-30T09:11:14;61784.75;;;30.31;48.00
21879;BME280;27908;42.708;23.278;2022-07-30T09:13:40;61849.66;;;30.36;45.68
21879;BME280;27908;42.708;23.278;2022-07-30T09:16:07;61724.84;;;30.45;46.62
21879;BME280;27908;42.708;23.278;2022-07-30T09:18:42;61801.59;;;30.61;46.12
21879;BME280;27908;42.708;23.278;2022-07-30T09:21:19;61691.50;;;30.70;46.49
21879;BME280;27908;42.708;23.278;2022-07-30T09:24:07;61774.78;;;30.98;45.94
21879;BME280;27908;42.708;23.278;2022-07-30T09:27:01;61836.38;;;30.91;45.97
21879;BME280;27908;42.708;23.278;2022-07-30T09:29:31;61907.09;;;31.04;44.83
21879;BME280;27908;42.708;23.278;2022-07-30T09:32:05;61908.41;;;31.08;45.00
21879;BME280;27908;42.708;23.278;2022-07-30T09:34:36;61792.75;;;31.26;46.72
21879;BME280;27908;42.708;23.278;2022-07-30T09:37:04;61844.06;;;31.46;43.94
21879;BME280;27908;42.708;23.278;2022-07-30T09:39:41;61843.38;;;31.48;44.16
21879;BME280;27908;42.708;23.278;2022-07-30T09:42:24;61955.56;;;31.50;43.17
21879;BME280;27908;42.708;23.278;2022-07-30T09:44:51;61877.25;;;31.61;43.79
21879;BME280;27908;42.708;23.278;2022-07-30T09:47:33;61834.50;;;31.76;43.73
21879;BME280;27908;42.708;23.278;2022-07-30T09:50:12;62021.69;;;31.76;42.62
21879;BME280;27908;42.708;23.278;2022-07-30T09:52:40;61954.69;;;31.62;43.41
21879;BME280;27908;42.708;23.278;2022-07-30T09:55:06;62051.88;;;31.67;41.70
21879;BME280;27908;42.708;23.278;2022-07-30T09:57:32;62012.13;;;31.85;41.74
21879;BME280;27908;42.708;23.278;2022-07-30T10:00:15;61983.69;;;32.07;41.43
21879;BME280;27908;42.708;23.278;2022-07-30T10:02:41;62002.25;;;32.20;42.41
21879;BME280;27908;42.708;23.278;2022-07-30T10:05:14;62011.13;;;32.29;40.97
21879;BME280;27908;42.708;23.278;2022-07-30T10:07:47;61911.16;;;32.61;42.34
21879;BME280;27908;42.708;23.278;2022-07-30T10:10:16;61941.09;;;32.78;42.02
21879;BME280;27908;42.708;23.278;2022-07-30T10:12:42;62104.22;;;32.64;39.67
21879;BME280;27908;42.708;23.278;2022-07-30T10:15:09;62103.41;;;32.61;38.25
21879;BME280;27908;42.708;23.278;2022-07-30T10:17:35;62019.88;;;32.69;42.05
21879;BME280;27908;42.708;23.278;2022-07-30T10:20:07;62139.66;;;32.86;39.58
21879;BME280;27908;42.708;23.278;2022-07-30T10:22:33;62136.97;;;32.94;38.57
21879;BME280;27908;42.708;23.278;2022-07-30T10:25:00;62136.72;;;33.12;39.53
21879;BME280;27908;42.708;23.278;2022-07-30T10:27:26;62230.50;;;33.24;37.16
21879;BME280;27908;42.708;23.278;2022-07-30T10:29:52;62186.56;;;33.25;38.05
21879;BME280;27908;42.708;23.278;2022-07-30T10:32:19;62240.44;;;33.18;38.15
21879;BME280;27908;42.708;23.278;2022-07-30T10:34:45;62256.72;;;33.42;37.70
21879;BME280;27908;42.708;23.278;2022-07-30T10:37:14;62217.00;;;33.58;38.78
21879;BME280;27908;42.708;23.278;2022-07-30T10:40:04;62144.59;;;33.94;37.23
21879;BME280;27908;42.708;23.278;2022-07-30T10:45:22;62269.84;;;34.11;36.02
21879;BME280;27908;42.708;23.278;2022-07-30T10:47:52;62273.28;;;34.22;36.15
21879;BME280;27908;42.708;23.278;2022-07-30T10:50:22;62317.75;;;34.38;36.38
21879;BME280;27908;42.708;23.278;2022-07-30T10:52:59;62279.63;;;34.45;36.26
21879;BME280;27908;42.708;23.278;2022-07-30T10:55:31;62366.56;;;34.36;35.69
21879;BME280;27908;42.708;23.278;2022-07-30T11:00:35;62203.31;;;34.74;37.50
21879;BME280;27908;42.708;23.278;2022-07-30T11:03:26;62264.91;;;34.72;36.40
21879;BME280;27908;42.708;23.278;2022-07-30T11:06:24;62342.41;;;34.70;36.43
21879;BME280;27908;42.708;23.278;2022-07-30T11:08:51;62227.75;;;34.59;37.53
21879;BME280;27908;42.708;23.278;2022-07-30T11:13:49;62379.72;;;34.97;34.77
21879;BME280;27908;42.708;23.278;2022-07-30T11:16:23;62358.13;;;34.81;36.40
21879;BME280;27908;42.708;23.278;2022-07-30T11:19:15;62529.59;;;34.14;35.84
21879;BME280;27908;42.708;23.278;2022-07-30T11:21:45;62493.69;;;34.12;35.76
21879;BME280;27908;42.708;23.278;2022-07-30T11:24:44;62427.34;;;34.15;35.86
21879;BME280;27908;42.708;23.278;2022-07-30T11:29:58;62329.75;;;34.84;37.96
21879;BME280;27908;42.708;23.278;2022-07-30T11:35:12;62340.13;;;35.31;36.12
21879;BME280;27908;42.708;23.278;2022-07-30T11:45:49;62354.03;;;36.01;35.42
21879;BME280;27908;42.708;23.278;2022-07-30T11:48:17;62464.78;;;36.19;33.11
21879;BME280;27908;42.708;23.278;2022-07-30T11:50:45;62527.63;;;36.02;32.69
21879;BME280;27908;42.708;23.278;2022-07-30T11:53:19;62582.13;;;35.82;33.39
21879;BME280;27908;42.708;23.278;2022-07-30T11:58:29;62357.78;;;36.07;33.96
21879;BME280;27908;42.708;23.278;2022-07-30T12:00:59;62368.09;;;36.47;35.10
21879;BME280;27908;42.708;23.278;2022-07-30T12:03:27;62528.47;;;36.56;32.55
21879;BME280;27908;42.708;23.278;2022-07-30T12:05:53;62480.69;;;36.48;33.70
21879;BME280;27908;42.708;23.278;2022-07-30T12:08:20;62520.84;;;35.92;34.46
21879;BME280;27908;42.708;23.278;2022-07-30T12:10:58;62548.50;;;35.62;34.44
21879;BME280;27908;42.708;23.278;2022-07-30T12:13:24;62533.69;;;36.13;33.08
21879;BME280;27908;42.708;23.278;2022-07-30T12:15:50;62517.97;;;36.32;32.49
21879;BME280;27908;42.708;23.278;2022-07-30T12:18:27;62481.88;;;36.67;32.77
21879;BME280;27908;42.708;23.278;2022-07-30T12:20:55;62518.56;;;36.46;33.79
21879;BME280;27908;42.708;23.278;2022-07-30T12:23:21;62431.50;;;36.52;34.55
21879;BME280;27908;42.708;23.278;2022-07-30T12:25:47;62306.31;;;36.97;35.33
21879;BME280;27908;42.708;23.278;2022-07-30T12:28:19;62342.31;;;37.33;33.71
21879;BME280;27908;42.708;23.278;2022-07-30T12:30:46;62323.03;;;37.61;33.10
21879;BME280;27908;42.708;23.278;2022-07-30T12:33:11;62359.47;;;37.44;32.36
21879;BME280;27908;42.708;23.278;2022-07-30T12:35:46;62419.38;;;37.75;31.50
21879;BME280;27908;42.708;23.278;2022-07-30T12:38:12;62441.50;;;37.92;31.78
21879;BME280;27908;42.708;23.278;2022-07-30T12:40:57;62612.66;;;37.18;31.93
21879;BME280;27908;42.708;23.278;2022-07-30T12:43:46;62627.47;;;36.83;31.85
21879;BME280;27908;42.708;23.278;2022-07-30T12:46:15;62582.22;;;36.69;33.02
21879;BME280;27908;42.708;23.278;2022-07-30T12:49:10;62570.84;;;37.00;32.03
21879;BME280;27908;42.708;23.278;2022-07-30T12:51:49;62561.72;;;37.44;32.20
21879;BME280;27908;42.708;23.278;2022-07-30T12:54:16;62488.72;;;37.80;31.84
21879;BME280;27908;42.708;23.278;2022-07-30T12:57:03;62548.81;;;37.74;31.48
21879;BME280;27908;42.708;23.278;2022-07-30T12:59:31;62519.03;;;37.95;32.46
21879;BME280;27908;42.708;23.278;2022-07-30T13:01:58;62433.53;;;38.45;31.96
21879;BME280;27908;42.708;23.278;2022-07-30T13:04:28;62605.59;;;38.47;30.52
21879;BME280;27908;42.708;23.278;2022-07-30T13:09:28;62562.19;;;38.70;31.11
21879;BME280;27908;42.708;23.278;2022-07-30T13:11:54;62463.63;;;38.62;30.37
21879;BME280;27908;42.708;23.278;2022-07-30T13:14:20;62645.03;;;38.67;29.52
21879;BME280;27908;42.708;23.278;2022-07-30T13:16:45;62623.56;;;38.83;30.77
21879;BME280;27908;42.708;23.278;2022-07-30T13:19:11;62789.59;;;37.43;30.71
21879;BME280;27908;42.708;23.278;2022-07-30T13:21:38;62701.50;;;37.33;32.61
21879;BME280;27908;42.708;23.278;2022-07-30T13:24:04;62770.97;;;36.62;33.03
21879;BME280;27908;42.708;23.278;2022-07-30T13:26:29;62891.19;;;35.89;32.75
21879;BME280;27908;42.708;23.278;2022-07-30T13:28:56;62777.41;;;35.76;34.20
21879;BME280;27908;42.708;23.278;2022-07-30T13:31:22;62878.16;;;35.36;34.79